Time;durP1;ratioP1;P1;durP2;ratioP2;P2;SDS_P1;SDS_P2;PMS_P1;PMS_P2;Temp;Humidity;BMP_temperature;BMP_pressure;BME280_temperature;BME280_humidity;BME280_pressure;Samples;Min_cycle;Max_cycle;Signal;HPM_P1;HPM_P2
2024/01/03 00:00:18;;;;;;;6.90;0.80;;;9.30;99.90;;;;;;4940439;28;20035;-71
2024/01/03 00:02:44;;;;;;;4.43;0.68;;;9.30;99.90;;;;;;4966747;28;20035;-73
2024/01/03 00:05:11;;;;;;;9.00;1.33;;;9.30;99.90;;;;;;4958912;28;20067;-71
2024/01/03 00:07:37;;;;;;;6.82;0.70;;;9.30;99.90;;;;;;4959332;28;20035;-71
2024/01/03 00:10:11;;;;;;;4.75;0.47;;;9.30;99.90;;;;;;4949229;28;20832;-73
2024/01/03 00:12:37;;;;;;;8.95;0.80;;;9.30;99.90;;;;;;4948574;28;20069;-72
2024/01/03 00:15:35;;;;;;;10.98;0.95;;;9.20;99.90;;;;;;4948610;28;20623;-72
2024/01/03 00:18:04;;;;;;;14.05;2.35;;;9.20;99.90;;;;;;4947696;29;20039;-72
2024/01/03 00:20:30;;;;;;;16.95;1.58;;;9.20;99.90;;;;;;4949436;28;20035;-73
2024/01/03 00:22:56;;;;;;;7.45;1.45;;;9.20;99.90;;;;;;4947676;28;20193;-71
2024/01/03 00:25:29;;;;;;;19.75;2.70;;;9.20;99.90;;;;;;4949227;28;20089;-73
2024/01/03 00:27:55;;;;;;;14.07;2.40;;;9.20;99.90;;;;;;4948685;28;20082;-73
2024/01/03 00:30:21;;;;;;;12.63;1.25;;;9.20;99.90;;;;;;4948818;28;20188;-71
2024/01/03 00:32:47;;;;;;;12.55;1.50;;;9.30;99.90;;;;;;4961712;28;20035;-73
2024/01/03 00:35:14;;;;;;;13.93;2.65;;;9.30;99.90;;;;;;4967559;28;20035;-70
2024/01/03 00:37:40;;;;;;;24.17;3.22;;;9.30;99.90;;;;;;4965584;28;20035;-70
2024/01/03 00:40:32;;;;;;;9.32;1.13;;;9.30;99.90;;;;;;4955586;28;20503;-71
2024/01/03 00:42:57;;;;;;;19.08;2.47;;;9.30;99.90;;;;;;4929650;29;20079;-72
2024/01/03 00:45:23;;;;;;;10.75;2.42;;;9.30;99.90;;;;;;4944540;28;20396;-72
2024/01/03 00:47:49;;;;;;;18.10;2.72;;;9.30;99.90;;;;;;4928643;29;20058;-71
2024/01/03 00:50:16;;;;;;;19.60;2.20;;;9.30;99.90;;;;;;4947788;28;20035;-71
2024/01/03 00:52:41;;;;;;;15.05;2.55;;;9.40;99.90;;;;;;4946941;28;20465;-74
2024/01/03 00:55:09;;;;;;;24.48;3.60;;;9.40;99.90;;;;;;4949346;28;20102;-71
2024/01/03 00:57:36;;;;;;;18.48;2.88;;;9.40;99.90;;;;;;4946613;28;20039;-72
2024/01/03 01:00:03;;;;;;;27.35;2.08;;;9.30;99.90;;;;;;4965719;28;20035;-73
2024/01/03 01:02:29;;;;;;;9.40;1.50;;;9.40;99.90;;;;;;4966437;28;20450;-72
2024/01/03 01:04:54;;;;;;;20.17;3.35;;;9.40;99.90;;;;;;4967614;28;20042;-72
2024/01/03 01:07:20;;;;;;;21.45;4.35;;;9.40;99.90;;;;;;4960280;28;20039;-76
2024/01/03 01:09:46;;;;;;;20.85;1.80;;;9.50;99.90;;;;;;4957681;28;20039;-72
2024/01/03 01:12:11;;;;;;;21.65;3.83;;;9.60;99.90;;;;;;4949193;28;20032;-72
2024/01/03 01:14:37;;;;;;;24.17;3.10;;;9.50;99.90;;;;;;4947447;28;20488;-73
2024/01/03 01:17:03;;;;;;;18.40;3.55;;;9.60;99.90;;;;;;4965598;28;20516;-72
2024/01/03 01:19:28;;;;;;;22.42;3.42;;;9.70;99.90;;;;;;4961837;28;20043;-72
2024/01/03 01:21:54;;;;;;;21.85;3.05;;;9.70;99.90;;;;;;4962542;28;20042;-72
2024/01/03 01:24:19;;;;;;;21.67;2.63;;;9.70;99.90;;;;;;4965749;28;20053;-74
2024/01/03 01:26:45;;;;;;;18.75;2.40;;;9.70;99.90;;;;;;4963133;28;20047;-72
2024/01/03 01:29:11;;;;;;;22.75;3.05;;;9.70;99.90;;;;;;4967095;28;20067;-72
2024/01/03 01:31:36;;;;;;;20.80;2.33;;;9.80;99.90;;;;;;4966671;28;20042;-72
2024/01/03 01:34:02;;;;;;;15.88;3.00;;;9.80;99.90;;;;;;4951413;28;20119;-72
2024/01/03 01:36:27;;;;;;;18.75;1.80;;;9.80;99.90;;;;;;4949863;28;20134;-71
2024/01/03 01:38:53;;;;;;;15.13;2.13;;;9.80;99.90;;;;;;4950438;28;20035;-72
2024/01/03 01:41:18;;;;;;;21.98;2.65;;;9.80;99.90;;;;;;4950134;28;20503;-72
2024/01/03 01:43:44;;;;;;;17.40;2.00;;;9.80;99.90;;;;;;4953263;28;20125;-74
2024/01/03 01:46:11;;;;;;;16.30;2.33;;;9.90;99.90;;;;;;4970968;28;20023;-71
2024/01/03 01:48:37;;;;;;;21.42;2.22;;;9.80;99.90;;;;;;4963176;28;20031;-73
2024/01/03 01:51:03;;;;;;;20.35;2.42;;;9.90;99.90;;;;;;4949602;29;20038;-73
2024/01/03 01:53:29;;;;;;;14.10;3.42;;;9.90;99.90;;;;;;4950406;28;20042;-74
2024/01/03 01:55:56;;;;;;;13.63;2.53;;;9.90;99.90;;;;;;4949174;28;20019;-74
2024/01/03 01:58:22;;;;;;;16.92;2.38;;;9.90;99.90;;;;;;4949894;28;20031;-72
2024/01/03 02:00:48;;;;;;;14.57;2.10;;;9.90;99.90;;;;;;4950512;28;20031;-71
2024/01/03 02:03:15;;;;;;;20.80;2.58;;;9.90;99.90;;;;;;4949278;28;20035;-71
2024/01/03 02:05:43;;;;;;;17.15;2.88;;;9.90;99.90;;;;;;4948392;28;20023;-71
2024/01/03 02:08:10;;;;;;;16.77;2.45;;;9.90;99.90;;;;;;4950173;28;20142;-76
2024/01/03 02:10:36;;;;;;;19.23;1.73;;;9.90;99.90;;;;;;4949970;28;20067;-73
2024/01/03 02:13:02;;;;;;;17.35;2.33;;;9.90;99.90;;;;;;4950592;28;20066;-72
2024/01/03 02:15:27;;;;;;;22.65;3.30;;;9.90;99.90;;;;;;4948832;28;20038;-73
2024/01/03 02:17:57;;;;;;;15.77;2.90;;;9.90;99.90;;;;;;4948389;28;20031;-70
2024/01/03 02:20:30;;;;;;;17.02;3.00;;;9.90;99.90;;;;;;4947200;28;20377;-72
2024/01/03 02:22:56;;;;;;;20.77;2.28;;;9.90;99.90;;;;;;4948248;28;20099;-74
2024/01/03 02:25:21;;;;;;;15.20;2.13;;;9.90;99.90;;;;;;4947750;28;20039;-72
2024/01/03 02:27:47;;;;;;;17.95;3.08;;;9.80;99.90;;;;;;4947763;28;20118;-72
2024/01/03 02:30:14;;;;;;;11.73;2.08;;;9.80;99.90;;;;;;4961032;28;20039;-71
2024/01/03 02:32:39;;;;;;;17.40;2.72;;;9.80;99.90;;;;;;4964057;28;20428;-73
2024/01/03 02:35:05;;;;;;;16.45;1.95;;;9.80;99.90;;;;;;4962382;28;20046;-74
2024/01/03 02:37:31;;;;;;;17.17;2.15;;;9.80;99.90;;;;;;4959483;28;20463;-73
2024/01/03 02:39:57;;;;;;;15.27;2.72;;;9.80;99.90;;;;;;4963332;28;20039;-72
2024/01/03 02:42:22;;;;;;;13.43;2.20;;;9.80;99.90;;;;;;4967372;28;20035;-72
2024/01/03 02:44:48;;;;;;;12.80;2.45;;;9.80;99.90;;;;;;4967462;28;20125;-70
2024/01/03 02:47:13;;;;;;;9.90;1.73;;;9.90;99.90;;;;;;4963973;28;20043;-73
2024/01/03 02:49:39;;;;;;;17.92;2.40;;;9.90;99.90;;;;;;4958414;28;20442;-72
2024/01/03 02:52:05;;;;;;;15.80;2.95;;;9.90;99.90;;;;;;4948577;28;20052;-72
2024/01/03 02:54:30;;;;;;;14.65;2.05;;;9.90;99.90;;;;;;4947807;28;20467;-73
2024/01/03 02:56:57;;;;;;;12.10;2.50;;;9.90;99.90;;;;;;4949717;28;20135;-73
2024/01/03 02:59:24;;;;;;;17.98;2.20;;;9.90;99.90;;;;;;4960692;28;20392;-72
2024/01/03 03:01:50;;;;;;;32.63;3.70;;;9.90;99.90;;;;;;4947947;28;20115;-72
2024/01/03 03:04:15;;;;;;;19.75;2.55;;;9.90;99.90;;;;;;4949555;28;20551;-72
2024/01/03 03:06:41;;;;;;;15.50;2.45;;;9.90;99.90;;;;;;4948822;28;20058;-73
2024/01/03 03:09:07;;;;;;;21.40;3.38;;;9.90;99.90;;;;;;4949381;28;20094;-71
2024/01/03 03:11:32;;;;;;;16.13;2.83;;;9.90;99.90;;;;;;4947295;28;20042;-74
2024/01/03 03:13:58;;;;;;;28.65;2.92;;;9.90;99.90;;;;;;4948419;28;20035;-72
2024/01/03 03:16:23;;;;;;;37.25;2.08;;;10.00;99.90;;;;;;4960158;28;20030;-73
2024/01/03 03:18:49;;;;;;;10.18;1.77;;;10.00;99.90;;;;;;4966397;28;20368;-73
2024/01/03 03:21:14;;;;;;;23.77;3.72;;;10.00;99.90;;;;;;4957316;28;20082;-73
2024/01/03 03:23:40;;;;;;;24.17;2.00;;;10.00;99.90;;;;;;4947225;28;20046;-71
2024/01/03 03:26:06;;;;;;;19.80;3.63;;;10.00;99.90;;;;;;4949372;28;20517;-72
2024/01/03 03:28:32;;;;;;;13.15;3.47;;;10.00;99.90;;;;;;4947840;28;20756;-75
2024/01/03 03:30:57;;;;;;;15.15;2.33;;;10.00;99.90;;;;;;4950629;28;20034;-72
2024/01/03 03:33:23;;;;;;;20.52;2.33;;;10.00;99.90;;;;;;4959628;28;20391;-72
2024/01/03 03:35:48;;;;;;;18.95;3.08;;;9.90;99.90;;;;;;4947576;28;20054;-72
2024/01/03 03:38:14;;;;;;;27.63;3.10;;;10.00;99.90;;;;;;4947379;28;20081;-72
2024/01/03 03:40:40;;;;;;;21.83;3.22;;;10.00;99.90;;;;;;4949871;28;20731;-72
2024/01/03 03:43:05;;;;;;;20.30;2.53;;;10.00;99.90;;;;;;4969501;28;20031;-71
2024/01/03 03:45:34;;;;;;;23.95;3.13;;;10.00;99.90;;;;;;4964058;28;20085;-72
2024/01/03 03:47:59;;;;;;;18.52;3.50;;;10.10;99.90;;;;;;4966505;28;20507;-72
2024/01/03 03:50:25;;;;;;;28.80;3.28;;;10.10;99.90;;;;;;4948211;28;20058;-71
2024/01/03 03:52:50;;;;;;;22.48;2.55;;;10.10;99.90;;;;;;4948587;28;20232;-71
2024/01/03 03:55:16;;;;;;;17.73;2.63;;;10.10;99.90;;;;;;4959774;28;20047;-72
2024/01/03 03:57:41;;;;;;;23.45;3.22;;;10.10;99.90;;;;;;4945692;28;20047;-72
2024/01/03 04:00:08;;;;;;;20.25;2.80;;;10.10;99.90;;;;;;4948684;28;20035;-72
2024/01/03 04:02:33;;;;;;;20.42;3.42;;;10.10;99.90;;;;;;4946347;28;20035;-73
2024/01/03 04:04:59;;;;;;;20.60;3.00;;;10.10;99.90;;;;;;4962633;28;20039;-72
2024/01/03 04:07:24;;;;;;;22.98;3.97;;;10.10;99.90;;;;;;4950477;28;20047;-72
2024/01/03 04:09:50;;;;;;;21.13;3.00;;;10.10;99.90;;;;;;4956524;28;20039;-74
2024/01/03 04:12:15;;;;;;;23.10;4.10;;;10.10;99.90;;;;;;4947337;28;20495;-71
2024/01/03 04:14:41;;;;;;;21.02;3.97;;;10.10;99.90;;;;;;4946383;28;20054;-71
2024/01/03 04:17:07;;;;;;;16.50;2.72;;;10.10;99.90;;;;;;4950862;28;20072;-72
2024/01/03 04:19:32;;;;;;;12.77;2.47;;;10.10;99.90;;;;;;4945341;28;20038;-73
2024/01/03 04:21:58;;;;;;;28.58;3.20;;;10.20;99.90;;;;;;4947291;28;20466;-72
2024/01/03 04:24:24;;;;;;;21.52;3.97;;;10.10;99.90;;;;;;4946762;28;20039;-71
2024/01/03 04:26:54;;;;;;;24.50;4.78;;;10.10;99.90;;;;;;4955738;28;20518;-73
2024/01/03 04:29:19;;;;;;;20.08;4.07;;;10.10;99.90;;;;;;4946139;28;20039;-72
2024/01/03 04:31:45;;;;;;;15.82;2.90;;;10.10;99.90;;;;;;4948106;28;20476;-71
2024/01/03 04:34:10;;;;;;;30.15;4.63;;;10.20;99.90;;;;;;4946928;28;20034;-72
2024/01/03 04:36:36;;;;;;;24.02;3.88;;;10.20;99.90;;;;;;4947207;28;20090;-71
2024/01/03 04:39:02;;;;;;;25.50;4.30;;;10.20;99.90;;;;;;4946450;29;20163;-71
2024/01/03 04:41:28;;;;;;;23.73;5.43;;;10.30;99.90;;;;;;4946424;28;20604;-76
2024/01/03 04:43:54;;;;;;;22.85;2.75;;;10.20;99.90;;;;;;4946542;28;20046;-72
2024/01/03 04:46:19;;;;;;;24.77;3.42;;;10.20;99.90;;;;;;4959000;28;20035;-72
2024/01/03 04:48:45;;;;;;;24.23;3.33;;;10.20;99.90;;;;;;4964464;28;20030;-71
2024/01/03 04:51:10;;;;;;;20.95;2.88;;;10.10;99.90;;;;;;4948238;28;20118;-73
2024/01/03 04:53:37;;;;;;;34.17;3.90;;;10.10;99.90;;;;;;4947366;28;20027;-71
2024/01/03 04:56:03;;;;;;;31.48;5.35;;;10.10;99.90;;;;;;4946716;28;20027;-72
2024/01/03 04:58:28;;;;;;;28.55;3.90;;;10.20;99.90;;;;;;4947743;28;20046;-73
2024/01/03 05:00:54;;;;;;;28.60;4.15;;;10.20;99.90;;;;;;4952075;28;20043;-71
2024/01/03 05:03:20;;;;;;;24.20;4.18;;;10.20;99.90;;;;;;4952837;28;20070;-72
2024/01/03 05:05:46;;;;;;;31.20;4.30;;;10.20;99.90;;;;;;4946681;28;20115;-71
2024/01/03 05:08:12;;;;;;;25.38;4.28;;;10.20;99.90;;;;;;4947313;28;20448;-71
2024/01/03 05:10:37;;;;;;;34.28;3.95;;;10.20;99.90;;;;;;4949262;28;20035;-73
2024/01/03 05:13:03;;;;;;;30.35;4.03;;;10.20;99.90;;;;;;4952339;28;20509;-72
2024/01/03 05:15:29;;;;;;;30.45;4.35;;;10.30;99.90;;;;;;4959633;28;20054;-71
2024/01/03 05:17:54;;;;;;;35.28;4.80;;;10.20;99.90;;;;;;4956701;28;20031;-73
2024/01/03 05:20:20;;;;;;;27.13;3.75;;;10.20;99.90;;;;;;4956732;28;20093;-74
2024/01/03 05:22:45;;;;;;;27.52;3.17;;;10.20;99.90;;;;;;4960975;28;20035;-74
2024/01/03 05:25:11;;;;;;;19.83;3.97;;;10.10;99.90;;;;;;4967180;28;20031;-71
2024/01/03 05:27:36;;;;;;;15.45;3.35;;;10.10;99.90;;;;;;4949582;28;20063;-73
2024/01/03 05:30:02;;;;;;;26.27;3.22;;;10.00;99.90;;;;;;4949880;28;20031;-72
2024/01/03 05:32:28;;;;;;;21.48;3.30;;;10.00;99.90;;;;;;4948294;28;20071;-74
2024/01/03 05:34:53;;;;;;;18.95;2.92;;;9.90;99.90;;;;;;4949338;28;20035;-73
2024/01/03 05:37:19;;;;;;;19.02;2.75;;;9.90;99.90;;;;;;4951162;28;20119;-72
2024/01/03 05:39:45;;;;;;;19.23;4.10;;;9.90;99.90;;;;;;4948257;28;20039;-75
2024/01/03 05:42:11;;;;;;;13.38;3.05;;;9.90;99.90;;;;;;4949492;28;20051;-73
2024/01/03 05:44:36;;;;;;;9.65;1.38;;;9.90;99.90;;;;;;4949830;28;20043;-72
2024/01/03 05:47:03;;;;;;;14.85;2.17;;;9.90;99.90;;;;;;4958896;28;20043;-73
2024/01/03 05:49:29;;;;;;;8.65;2.47;;;9.80;99.90;;;;;;4948433;28;20031;-74
2024/01/03 05:51:55;;;;;;;12.50;2.30;;;9.80;99.90;;;;;;4939721;28;20736;-72
2024/01/03 05:54:21;;;;;;;19.08;2.65;;;9.80;99.90;;;;;;4951970;28;20043;-72
2024/01/03 05:56:46;;;;;;;18.27;3.60;;;9.80;99.90;;;;;;4951274;28;20039;-74
2024/01/03 05:59:12;;;;;;;8.75;2.38;;;9.80;99.90;;;;;;4960877;28;20118;-72
2024/01/03 06:01:37;;;;;;;16.33;2.05;;;9.80;99.90;;;;;;4955140;28;20812;-72
2024/01/03 06:04:03;;;;;;;13.18;1.77;;;9.80;99.90;;;;;;4958487;28;20031;-73
2024/01/03 06:06:29;;;;;;;15.35;1.92;;;9.80;99.90;;;;;;4948646;28;20039;-73
2024/01/03 06:08:55;;;;;;;17.00;1.85;;;9.80;99.90;;;;;;4957976;28;20388;-72
2024/01/03 06:11:21;;;;;;;8.75;1.38;;;9.80;99.90;;;;;;4947633;28;20074;-70
2024/01/03 06:13:47;;;;;;;17.05;3.50;;;9.80;99.90;;;;;;4950104;28;20027;-72
2024/01/03 06:16:13;;;;;;;25.05;3.08;;;9.80;99.90;;;;;;4946427;28;20033;-71
2024/01/03 06:18:38;;;;;;;5.93;0.75;;;9.70;99.90;;;;;;4955657;28;20038;-74
2024/01/03 06:21:09;;;;;;;9.45;1.88;;;9.70;99.90;;;;;;4949078;28;20057;-73
2024/01/03 06:23:37;;;;;;;;;;;9.70;99.90;;;;;;4955714;28;20130;-73
2024/01/03 06:26:03;;;;;;;9.30;1.73;;;9.70;99.90;;;;;;4961503;28;20044;-73
2024/01/03 06:28:28;;;;;;;21.70;2.08;;;9.70;99.90;;;;;;4960995;28;20574;-73
2024/01/03 06:30:54;;;;;;;9.95;0.98;;;9.70;99.90;;;;;;4952808;28;20036;-73
2024/01/03 06:33:19;;;;;;;10.25;1.60;;;9.60;99.90;;;;;;4949750;28;20042;-74
2024/01/03 06:35:45;;;;;;;9.32;1.50;;;9.60;99.90;;;;;;4953548;28;20518;-72
2024/01/03 06:38:10;;;;;;;8.30;1.10;;;9.60;99.90;;;;;;4960543;28;20066;-75
2024/01/03 06:40:36;;;;;;;8.88;2.00;;;9.60;99.90;;;;;;4959906;28;20039;-72
2024/01/03 06:43:02;;;;;;;13.30;2.22;;;9.60;99.90;;;;;;4957235;28;20027;-74
2024/01/03 06:45:27;;;;;;;4.43;1.38;;;9.60;99.90;;;;;;4955231;28;20046;-72
2024/01/03 06:47:53;;;;;;;12.35;2.75;;;9.50;99.90;;;;;;4948399;28;20422;-71
2024/01/03 06:50:18;;;;;;;10.80;1.13;;;9.50;99.90;;;;;;4955467;28;20063;-72
2024/01/03 06:52:44;;;;;;;8.70;1.63;;;9.50;99.90;;;;;;4951031;28;20403;-75
2024/01/03 06:55:10;;;;;;;11.27;1.90;;;9.50;99.90;;;;;;4961501;28;20130;-72
2024/01/03 06:57:35;;;;;;;9.50;1.70;;;9.60;99.90;;;;;;4956439;28;20034;-74
2024/01/03 07:00:01;;;;;;;6.25;1.67;;;9.60;99.90;;;;;;4954349;28;20035;-72
2024/01/03 07:02:26;;;;;;;11.27;0.95;;;9.60;99.90;;;;;;4951627;28;20036;-72
2024/01/03 07:04:52;;;;;;;9.75;2.05;;;9.60;99.90;;;;;;4960281;28;20043;-74
2024/01/03 07:07:17;;;;;;;8.93;1.40;;;9.50;99.90;;;;;;4949790;28;20486;-72
2024/01/03 07:09:44;;;;;;;18.00;1.90;;;9.40;99.90;;;;;;4948822;28;20045;-72
2024/01/03 07:12:09;;;;;;;15.80;3.15;;;9.50;99.90;;;;;;4957693;28;20027;-75
2024/01/03 07:14:35;;;;;;;9.75;1.80;;;9.40;99.90;;;;;;4956715;28;20041;-73
2024/01/03 07:17:00;;;;;;;8.90;1.27;;;9.40;99.90;;;;;;4954895;28;20825;-73
2024/01/03 07:19:26;;;;;;;18.55;1.40;;;9.40;99.90;;;;;;4956253;28;20043;-73
2024/01/03 07:21:51;;;;;;;13.60;1.83;;;9.40;99.90;;;;;;4944816;28;20806;-72
2024/01/03 07:24:17;;;;;;;15.93;2.00;;;9.30;99.90;;;;;;4954130;28;20110;-72
2024/01/03 07:26:43;;;;;;;4.85;0.65;;;9.30;99.90;;;;;;4954219;28;20034;-73
2024/01/03 07:29:08;;;;;;;14.10;0.90;;;9.30;99.90;;;;;;4964135;28;20037;-73
2024/01/03 07:31:35;;;;;;;10.50;1.33;;;9.30;99.90;;;;;;4952509;28;20043;-75
2024/01/03 07:34:00;;;;;;;8.52;0.70;;;9.20;99.90;;;;;;4941434;28;20045;-74
2024/01/03 07:36:26;;;;;;;8.70;0.70;;;9.20;99.90;;;;;;4944082;28;20036;-72
2024/01/03 07:38:52;;;;;;;10.38;2.50;;;9.20;99.90;;;;;;4951485;28;20106;-71
2024/01/03 07:41:19;;;;;;;5.38;0.82;;;9.10;99.90;;;;;;4961719;28;20761;-74
2024/01/03 07:43:45;;;;;;;16.15;1.00;;;9.10;99.90;;;;;;4947206;28;20495;-74
2024/01/03 07:46:10;;;;;;;7.82;0.82;;;9.10;99.90;;;;;;4946404;28;20031;-71
2024/01/03 07:48:36;;;;;;;13.40;1.70;;;9.10;99.90;;;;;;4951146;28;20028;-74
2024/01/03 07:51:01;;;;;;;19.33;2.90;;;9.10;99.90;;;;;;4953659;28;20035;-74
2024/01/03 07:53:27;;;;;;;13.05;1.92;;;9.10;99.90;;;;;;4954344;28;20039;-71
2024/01/03 07:55:53;;;;;;;14.23;1.35;;;9.10;99.90;;;;;;4956478;28;20051;-72
2024/01/03 07:58:19;;;;;;;7.07;1.60;;;9.10;99.90;;;;;;4955593;28;20031;-73
2024/01/03 08:00:44;;;;;;;9.80;1.10;;;9.20;99.90;;;;;;4955813;28;20947;-71
2024/01/03 08:03:10;;;;;;;11.10;1.65;;;9.20;99.90;;;;;;4945435;28;20037;-74
2024/01/03 08:05:36;;;;;;;9.07;1.10;;;9.20;99.90;;;;;;4944364;28;20035;-74
2024/01/03 08:08:01;;;;;;;12.63;1.73;;;9.20;99.90;;;;;;4957144;28;20038;-72
2024/01/03 08:10:27;;;;;;;11.23;1.10;;;9.20;99.90;;;;;;4950601;28;20061;-72
2024/01/03 08:12:53;;;;;;;14.52;1.90;;;9.20;99.90;;;;;;4946909;28;20078;-71
2024/01/03 08:15:18;;;;;;;16.45;1.48;;;9.20;99.90;;;;;;4952268;28;20043;-72
2024/01/03 08:17:44;;;;;;;21.45;2.65;;;9.30;99.90;;;;;;4948397;28;20050;-72
2024/01/03 08:20:10;;;;;;;20.52;3.03;;;9.30;99.90;;;;;;4947998;28;20633;-72
2024/01/03 08:22:36;;;;;;;9.45;1.65;;;9.30;99.90;;;;;;4950210;28;20062;-72
2024/01/03 08:25:02;;;;;;;17.90;2.30;;;9.40;99.90;;;;;;4953495;28;20055;-72
2024/01/03 08:27:27;;;;;;;13.65;1.77;;;9.40;99.90;;;;;;4949853;28;20042;-71
2024/01/03 08:29:53;;;;;;;21.33;2.42;;;9.40;99.90;;;;;;4951302;28;20050;-72
2024/01/03 08:32:18;;;;;;;20.33;1.88;;;9.50;99.90;;;;;;4944369;28;20508;-73
2024/01/03 08:34:47;;;;;;;17.80;2.30;;;9.50;99.90;;;;;;4944921;28;20043;-71
2024/01/03 08:37:13;;;;;;;14.50;2.47;;;9.50;99.90;;;;;;4951584;28;20554;-72
2024/01/03 08:39:39;;;;;;;9.50;1.50;;;9.60;99.90;;;;;;4949267;28;20045;-72
2024/01/03 08:42:05;;;;;;;17.17;2.55;;;9.60;99.90;;;;;;4943352;28;20050;-72
2024/01/03 08:44:31;;;;;;;14.73;2.05;;;9.60;99.90;;;;;;4953689;28;20024;-72
2024/01/03 08:46:57;;;;;;;15.70;2.08;;;9.70;99.90;;;;;;4960412;28;20126;-72
2024/01/03 08:49:23;;;;;;;17.23;1.92;;;9.70;99.90;;;;;;4951014;28;20050;-72
2024/01/03 08:51:49;;;;;;;18.65;2.47;;;9.80;99.90;;;;;;4962738;28;20078;-73
2024/01/03 08:54:15;;;;;;;9.65;1.10;;;9.80;99.90;;;;;;4947112;28;20035;-73
2024/01/03 08:56:40;;;;;;;15.55;1.88;;;9.80;99.90;;;;;;4954635;28;20427;-73
2024/01/03 08:59:06;;;;;;;23.70;2.97;;;9.80;99.90;;;;;;4961746;28;20125;-73
2024/01/03 09:01:34;;;;;;;22.00;2.10;;;9.90;99.90;;;;;;4958459;28;20030;-71
2024/01/03 09:04:00;;;;;;;24.65;2.22;;;9.90;99.90;;;;;;4956206;28;20035;-71
2024/01/03 09:06:26;;;;;;;14.15;3.38;;;9.90;99.90;;;;;;4956849;28;20038;-71
2024/01/03 09:08:52;;;;;;;16.98;2.67;;;10.00;99.90;;;;;;4957683;28;20035;-71
2024/01/03 09:11:28;;;;;;;20.73;2.78;;;10.00;99.90;;;;;;4956174;28;20391;-72
2024/01/03 09:13:56;;;;;;;13.75;1.77;;;10.00;99.90;;;;;;4952881;28;20039;-72
2024/01/03 09:16:22;;;;;;;15.10;1.77;;;10.10;99.90;;;;;;4962647;28;20106;-71
2024/01/03 09:18:49;;;;;;;14.75;2.95;;;10.00;99.90;;;;;;4949706;28;20178;-72
2024/01/03 09:21:15;;;;;;;12.98;2.40;;;10.00;99.90;;;;;;4950885;28;20023;-71
2024/01/03 09:23:41;;;;;;;17.08;1.92;;;10.10;99.90;;;;;;4945885;28;20504;-72
2024/01/03 09:26:07;;;;;;;10.90;2.25;;;10.10;99.90;;;;;;4961755;28;20035;-71
2024/01/03 09:28:37;;;;;;;23.55;2.88;;;10.10;99.90;;;;;;4960751;28;20074;-72
2024/01/03 09:31:03;;;;;;;14.77;1.92;;;10.10;99.90;;;;;;4953979;28;20506;-71
2024/01/03 09:33:28;;;;;;;12.68;2.10;;;10.10;99.90;;;;;;4950674;28;20062;-72
2024/01/03 09:35:54;;;;;;;11.77;2.10;;;10.10;99.90;;;;;;4956823;28;20983;-72
2024/01/03 09:38:22;;;;;;;10.25;1.40;;;10.10;99.90;;;;;;4953342;28;20507;-71
2024/01/03 09:40:48;;;;;;;18.83;1.70;;;9.90;99.90;;;;;;4956008;28;20802;-71
2024/01/03 09:43:15;;;;;;;19.42;3.50;;;9.90;99.90;;;;;;4953860;28;20043;-73
2024/01/03 09:45:41;;;;;;;13.88;2.70;;;9.90;99.90;;;;;;4947920;28;20046;-72
2024/01/03 09:48:08;;;;;;;14.48;2.05;;;9.80;99.90;;;;;;4956206;28;20051;-73
2024/01/03 09:50:34;;;;;;;11.70;1.92;;;9.80;99.90;;;;;;4959828;28;20057;-73
2024/01/03 09:53:01;;;;;;;7.53;1.75;;;9.70;99.90;;;;;;4951017;28;20395;-72
2024/01/03 09:55:29;;;;;;;10.57;0.90;;;9.70;99.90;;;;;;4948283;28;20090;-72
2024/01/03 09:57:55;;;;;;;10.63;1.77;;;9.70;99.90;;;;;;4954730;28;20039;-72
2024/01/03 10:00:23;;;;;;;16.58;2.20;;;9.70;99.90;;;;;;4955875;28;20529;-73
2024/01/03 10:02:49;;;;;;;11.57;1.67;;;9.60;99.90;;;;;;4953010;28;21027;-73
2024/01/03 10:05:19;;;;;;;9.98;1.55;;;9.60;99.90;;;;;;4946712;28;20039;-74
2024/01/03 10:07:44;;;;;;;10.10;2.30;;;9.60;99.90;;;;;;4953360;28;20027;-72
2024/01/03 10:10:10;;;;;;;13.75;1.90;;;9.60;99.90;;;;;;4944309;28;20039;-73
2024/01/03 10:12:36;;;;;;;25.33;2.30;;;9.60;99.90;;;;;;4951447;28;20795;-75
2024/01/03 10:15:17;;;;;;;9.77;1.98;;;9.60;99.90;;;;;;4961686;28;20479;-71
2024/01/03 10:17:46;;;;;;;9.38;1.25;;;9.70;99.90;;;;;;4949436;28;20054;-71
2024/01/03 10:20:28;;;;;;;13.13;2.15;;;9.70;99.90;;;;;;4956501;28;20468;-73
2024/01/03 10:23:03;;;;;;;13.85;1.80;;;9.70;99.90;;;;;;4945629;28;20047;-71
2024/01/03 10:25:29;;;;;;;15.38;3.33;;;9.70;99.90;;;;;;4949923;28;20044;-73
2024/01/03 10:28:00;;;;;;;15.48;1.90;;;9.80;99.90;;;;;;4952261;28;20042;-72
2024/01/03 10:30:26;;;;;;;11.38;1.35;;;9.80;99.90;;;;;;4950555;28;20096;-73
2024/01/03 10:33:13;;;;;;;14.35;2.30;;;9.80;99.90;;;;;;4959550;28;20043;-72
2024/01/03 10:35:44;;;;;;;13.82;1.77;;;9.80;99.90;;;;;;4960694;28;20514;-72
2024/01/03 10:38:10;;;;;;;17.70;2.80;;;9.80;99.90;;;;;;4959502;28;20499;-72
2024/01/03 10:40:39;;;;;;;15.18;2.42;;;9.80;99.90;;;;;;4952150;28;20038;-74
2024/01/03 10:43:07;;;;;;;15.57;2.30;;;9.80;99.90;;;;;;4959419;28;20030;-74
2024/01/03 10:45:33;;;;;;;17.10;2.67;;;9.90;99.90;;;;;;4948515;28;20031;-73
2024/01/03 10:47:59;;;;;;;14.95;1.67;;;10.00;99.90;;;;;;4958149;28;20039;-72
2024/01/03 10:50:25;;;;;;;19.30;1.92;;;10.00;99.90;;;;;;4950026;28;20034;-71
2024/01/03 10:52:58;;;;;;;20.98;1.65;;;10.00;99.90;;;;;;4948487;28;20046;-73
2024/01/03 10:55:41;;;;;;;11.85;1.80;;;10.00;99.90;;;;;;4953143;28;20035;-73
2024/01/03 10:58:13;;;;;;;14.45;2.00;;;10.00;99.90;;;;;;4943954;28;20047;-72
2024/01/03 11:01:05;;;;;;;14.45;2.25;;;10.10;99.90;;;;;;4950814;28;20491;-73
2024/01/03 11:03:58;;;;;;;18.17;3.33;;;10.10;99.90;;;;;;4947043;28;20526;-72
2024/01/03 11:06:58;;;;;;;26.35;2.58;;;10.10;99.90;;;;;;4943600;28;20041;-73
2024/01/03 11:09:28;;;;;;;23.83;3.75;;;10.10;99.90;;;;;;4944911;28;20117;-72
2024/01/03 11:12:07;;;;;;;9.75;2.05;;;10.10;99.90;;;;;;4951725;28;20041;-72
2024/01/03 11:14:33;;;;;;;23.77;3.20;;;10.10;99.90;;;;;;4954520;28;20097;-72
2024/01/03 11:16:59;;;;;;;17.48;1.75;;;10.10;99.90;;;;;;4953268;28;20403;-72
2024/01/03 11:19:32;;;;;;;21.27;4.00;;;10.10;99.90;;;;;;4956626;28;20023;-71
2024/01/03 11:22:07;;;;;;;18.35;2.47;;;10.10;99.90;;;;;;4953526;28;20470;-72
2024/01/03 11:24:32;;;;;;;19.02;3.17;;;10.20;99.90;;;;;;4945663;28;20412;-72
2024/01/03 11:27:04;;;;;;;19.98;3.30;;;10.20;99.90;;;;;;4950060;28;20035;-71
2024/01/03 11:29:36;;;;;;;30.33;3.08;;;10.20;99.90;;;;;;4950176;28;20507;-74
2024/01/03 11:32:04;;;;;;;15.50;2.85;;;10.30;99.90;;;;;;4950020;28;20043;-74
2024/01/03 11:34:37;;;;;;;22.40;2.80;;;10.40;99.90;;;;;;4948218;28;20122;-72
2024/01/03 11:37:26;;;;;;;11.95;2.00;;;10.40;99.90;;;;;;4956735;28;20047;-72
2024/01/03 11:39:53;;;;;;;14.50;3.00;;;10.40;99.90;;;;;;4938109;28;20202;-71
2024/01/03 11:42:30;;;;;;;15.52;3.05;;;10.40;99.90;;;;;;4947956;28;20035;-72
2024/01/03 11:45:19;;;;;;;8.68;1.83;;;10.50;99.90;;;;;;4947356;28;20041;-72
2024/01/03 11:47:46;;;;;;;11.90;2.27;;;10.40;99.90;;;;;;4954159;28;20050;-74
2024/01/03 11:50:14;;;;;;;10.05;2.22;;;10.40;99.90;;;;;;4951869;28;20118;-71
2024/01/03 11:52:43;;;;;;;12.65;1.27;;;10.40;99.90;;;;;;4947918;28;20046;-73
2024/01/03 11:55:11;;;;;;;16.90;2.10;;;10.40;99.90;;;;;;4953028;28;20588;-72
2024/01/03 11:57:47;;;;;;;17.67;2.55;;;10.50;99.90;;;;;;4945289;28;20027;-71
2024/01/03 12:00:18;;;;;;;23.48;3.00;;;10.50;99.90;;;;;;4949266;28;20432;-72
2024/01/03 12:02:56;;;;;;;24.40;3.42;;;10.50;99.90;;;;;;4947012;28;20031;-75
2024/01/03 12:05:22;;;;;;;25.75;4.45;;;10.50;99.90;;;;;;4958342;28;20039;-73
2024/01/03 12:07:49;;;;;;;23.95;3.03;;;10.40;99.90;;;;;;4955731;28;20045;-72
2024/01/03 12:10:17;;;;;;;17.23;2.88;;;10.50;99.90;;;;;;4959326;28;20035;-72
2024/01/03 12:12:44;;;;;;;28.27;3.90;;;10.40;99.90;;;;;;4960663;28;20061;-75
2024/01/03 12:15:27;;;;;;;17.27;3.35;;;10.50;99.90;;;;;;4954861;28;20035;-72
2024/01/03 12:17:53;;;;;;;15.70;2.60;;;10.50;99.90;;;;;;4940965;28;20059;-71
2024/01/03 12:20:20;;;;;;;27.63;4.22;;;10.50;99.90;;;;;;4952883;28;20066;-72
2024/01/03 12:22:47;;;;;;;13.23;2.05;;;10.50;99.90;;;;;;4951487;28;20035;-74
2024/01/03 12:25:28;;;;;;;28.98;4.03;;;10.60;99.90;;;;;;4948582;28;20051;-72
2024/01/03 12:27:55;;;;;;;24.13;2.85;;;10.60;99.90;;;;;;4948241;28;20047;-72
2024/01/03 12:30:21;;;;;;;16.85;3.03;;;10.70;99.90;;;;;;4960652;28;20867;-72
2024/01/03 12:32:49;;;;;;;23.80;2.88;;;10.70;99.90;;;;;;4951476;28;20060;-75
2024/01/03 12:35:15;;;;;;;28.75;3.90;;;10.70;99.90;;;;;;4957411;28;20035;-73
2024/01/03 12:37:43;;;;;;;20.92;3.83;;;10.60;99.90;;;;;;4954613;28;20039;-73
2024/01/03 12:40:14;;;;;;;27.30;3.45;;;10.60;99.90;;;;;;4945341;28;20046;-72
2024/01/03 12:42:40;;;;;;;18.88;3.47;;;10.60;99.90;;;;;;4950450;28;20034;-71
2024/01/03 12:45:06;;;;;;;15.68;3.25;;;10.50;99.90;;;;;;4957021;28;20122;-70